createdAt,value
2022-09-09T00:02:06.091Z,99.90
2022-09-09T00:04:35.931Z,99.90
2022-09-09T00:07:10.863Z,99.90
2022-09-09T00:09:50.137Z,99.90
2022-09-09T00:12:23.369Z,99.90
2022-09-09T00:15:05.568Z,99.90
2022-09-09T00:17:57.243Z,99.90
2022-09-09T00:20:52.022Z,99.90
2022-09-09T00:23:40.320Z,99.90
2022-09-09T00:26:31.288Z,99.90
2022-09-09T00:29:34.448Z,99.90
2022-09-09T00:32:21.927Z,99.90
2022-09-09T00:35:01.255Z,99.90
2022-09-09T00:37:29.685Z,99.90
2022-09-09T00:40:01.151Z,99.90
2022-09-09T00:42:38.792Z,99.90
2022-09-09T00:45:50.096Z,99.90
2022-09-09T00:48:17.241Z,99.90
2022-09-09T00:51:03.687Z,99.90
2022-09-09T00:53:59.313Z,99.90
2022-09-09T00:56:38.304Z,99.90
2022-09-09T00:59:28.356Z,99.90
2022-09-09T01:01:56.653Z,99.90
2022-09-09T01:04:37.595Z,99.90
2022-09-09T01:07:14.451Z,99.90
2022-09-09T01:09:55.602Z,99.90
2022-09-09T01:12:39.511Z,99.90
2022-09-09T01:15:26.897Z,99.90
2022-09-09T01:17:59.412Z,99.90
2022-09-09T01:20:56.700Z,99.90
2022-09-09T01:23:43.266Z,99.90
2022-09-09T01:26:24.290Z,99.90
2022-09-09T01:28:55.589Z,99.90
2022-09-09T01:31:37.351Z,99.90
2022-09-09T01:34:13.463Z,99.90
2022-09-09T01:36:56.580Z,99.90
2022-09-09T01:39:23.422Z,99.90
2022-09-09T01:41:50.487Z,99.90
2022-09-09T01:44:19.142Z,99.90
2022-09-09T01:46:46.140Z,99.90
2022-09-09T01:49:13.752Z,99.90
2022-09-09T01:51:42.806Z,99.90
2022-09-09T01:54:09.680Z,99.90
2022-09-09T01:56:39.567Z,99.90
2022-09-09T01:59:44.002Z,99.90
2022-09-09T02:02:29.000Z,99.90
2022-09-09T02:05:08.544Z,99.90
2022-09-09T02:07:44.297Z,99.90
2022-09-09T02:10:20.435Z,99.90
2022-09-09T02:12:52.236Z,99.90
2022-09-09T02:15:31.022Z,99.90
2022-09-09T02:17:59.477Z,99.90
2022-09-09T02:20:30.543Z,99.90
2022-09-09T02:23:02.470Z,99.90
2022-09-09T02:25:30.889Z,99.90
2022-09-09T02:28:01.178Z,99.90
2022-09-09T02:30:31.949Z,99.90
2022-09-09T02:33:02.439Z,99.90
2022-09-09T02:35:31.618Z,99.90
2022-09-09T02:38:02.692Z,99.90
2022-09-09T02:40:29.540Z,99.90
2022-09-09T02:42:56.573Z,99.90
2022-09-09T02:45:32.946Z,99.90
2022-09-09T02:48:20.801Z,99.90
2022-09-09T02:51:02.813Z,99.90
2022-09-09T02:53:48.996Z,99.90
2022-09-09T02:56:19.526Z,99.90
2022-09-09T02:58:47.238Z,99.90
2022-09-09T03:01:15.214Z,99.90
2022-09-09T03:03:43.191Z,99.90
2022-09-09T03:06:10.966Z,99.90
2022-09-09T03:08:37.784Z,99.90
2022-09-09T03:11:05.026Z,99.90
2022-09-09T03:13:31.915Z,99.90
2022-09-09T03:15:58.703Z,99.90
2022-09-09T03:18:26.149Z,99.90
2022-09-09T03:20:55.008Z,99.90
2022-09-09T03:23:22.729Z,99.90
2022-09-09T03:25:50.835Z,99.90
2022-09-09T03:28:17.736Z,99.90
2022-09-09T03:30:44.545Z,99.90
2022-09-09T03:33:11.433Z,99.90
2022-09-09T03:35:38.260Z,99.90
2022-09-09T03:38:05.141Z,99.90
2022-09-09T03:40:32.127Z,99.90
2022-09-09T03:42:59.057Z,99.90
2022-09-09T03:45:25.872Z,99.90
2022-09-09T03:47:52.746Z,99.90
2022-09-09T03:50:19.780Z,99.90
2022-09-09T03:52:47.025Z,99.90
2022-09-09T03:55:13.840Z,99.90
2022-09-09T03:57:40.673Z,99.90
2022-09-09T04:00:09.180Z,99.90
2022-09-09T04:02:36.079Z,99.90
2022-09-09T04:05:03.001Z,99.90
2022-09-09T04:07:29.891Z,99.90
2022-09-09T04:09:56.731Z,99.90
2022-09-09T04:12:23.668Z,99.90
2022-09-09T04:14:50.529Z,99.90
2022-09-09T04:17:18.316Z,99.90
2022-09-09T04:19:45.243Z,99.90
2022-09-09T04:22:12.084Z,99.90
2022-09-09T04:24:39.045Z,99.90
2022-09-09T04:27:06.008Z,99.90
2022-09-09T04:29:32.840Z,99.90
2022-09-09T04:31:59.727Z,99.90
2022-09-09T04:34:26.702Z,99.90
2022-09-09T04:36:53.525Z,99.90
2022-09-09T04:39:20.645Z,99.90
2022-09-09T04:41:48.221Z,99.90
2022-09-09T04:44:15.295Z,99.90
2022-09-09T04:46:42.465Z,99.90
2022-09-09T04:49:13.111Z,99.90
2022-09-09T04:51:41.861Z,99.90
2022-09-09T04:54:08.649Z,99.90
2022-09-09T04:56:35.467Z,99.90
2022-09-09T04:59:03.885Z,99.90
2022-09-09T05:01:30.817Z,99.90
2022-09-09T05:03:57.651Z,99.90
2022-09-09T05:06:25.021Z,99.90
2022-09-09T05:08:52.001Z,99.90
2022-09-09T05:11:26.815Z,99.90
2022-09-09T05:13:54.835Z,99.90
2022-09-09T05:16:23.871Z,99.90
2022-09-09T05:18:54.611Z,99.90
2022-09-09T05:21:24.066Z,99.90
2022-09-09T05:23:52.349Z,99.90
2022-09-09T05:26:21.694Z,99.90
2022-09-09T05:28:48.475Z,99.90
2022-09-09T05:31:17.207Z,99.90
2022-09-09T05:33:46.810Z,99.90
2022-09-09T05:36:19.909Z,99.90
2022-09-09T05:38:47.101Z,99.90
2022-09-09T05:41:18.325Z,99.90
2022-09-09T05:43:46.462Z,99.90
2022-09-09T05:46:15.894Z,99.90
2022-09-09T05:48:44.914Z,99.90
2022-09-09T05:51:13.901Z,99.90
2022-09-09T05:53:40.700Z,99.90
2022-09-09T05:56:11.704Z,99.90
2022-09-09T05:58:39.721Z,99.90
2022-09-09T06:01:12.669Z,99.90
2022-09-09T06:03:41.520Z,99.90
2022-09-09T06:06:10.769Z,99.90
2022-09-09T06:08:39.669Z,99.90
2022-09-09T06:11:12.907Z,99.90
2022-09-09T06:13:40.695Z,99.90
2022-09-09T06:16:10.659Z,99.90
2022-09-09T06:18:37.725Z,99.90
2022-09-09T06:21:07.550Z,99.90
2022-09-09T06:23:38.045Z,99.90
2022-09-09T06:26:12.465Z,99.90
2022-09-09T06:28:39.431Z,99.90
2022-09-09T06:31:09.254Z,99.90
2022-09-09T06:33:42.149Z,99.90
2022-09-09T06:36:13.640Z,99.90
2022-09-09T06:38:40.693Z,99.90
2022-09-09T06:41:12.572Z,99.90
2022-09-09T06:43:39.894Z,99.90
2022-09-09T06:46:20.245Z,99.90
2022-09-09T06:48:47.502Z,99.90
2022-09-09T06:51:17.435Z,99.90
2022-09-09T06:53:45.920Z,99.90
2022-09-09T06:56:17.391Z,99.90
2022-09-09T06:58:45.949Z,99.90
2022-09-09T07:01:15.599Z,99.90
2022-09-09T07:03:43.477Z,99.90
2022-09-09T07:06:18.656Z,99.90
2022-09-09T07:08:56.266Z,99.90
2022-09-09T07:11:27.877Z,99.90
2022-09-09T07:13:55.737Z,99.90
2022-09-09T07:16:26.448Z,99.90
2022-09-09T07:18:58.655Z,99.90
2022-09-09T07:21:29.801Z,99.90
2022-09-09T07:23:57.187Z,99.90
2022-09-09T07:26:26.586Z,99.90
2022-09-09T07:28:54.398Z,99.90
2022-09-09T07:31:27.146Z,99.90
2022-09-09T07:33:54.845Z,99.90
2022-09-09T07:36:24.309Z,99.90
2022-09-09T07:38:53.757Z,99.90
2022-09-09T07:41:31.229Z,99.90
2022-09-09T07:43:59.333Z,99.90
2022-09-09T07:46:27.409Z,99.90
2022-09-09T07:48:56.836Z,99.90
2022-09-09T07:51:25.737Z,99.90
2022-09-09T07:53:55.704Z,99.90
2022-09-09T07:56:24.222Z,99.90
2022-09-09T07:58:53.304Z,99.90
2022-09-09T08:01:21.666Z,99.90
2022-09-09T08:03:56.770Z,99.90
2022-09-09T08:06:24.682Z,99.90
2022-09-09T08:08:52.426Z,99.90
2022-09-09T08:11:19.570Z,99.90
2022-09-09T08:13:50.850Z,99.90
2022-09-09T08:16:26.430Z,99.90
2022-09-09T08:18:55.992Z,99.90
2022-09-09T08:21:25.713Z,99.90
2022-09-09T08:23:57.814Z,99.90
2022-09-09T08:26:30.116Z,99.90
2022-09-09T08:28:59.366Z,99.90
2022-09-09T08:31:28.953Z,99.90
2022-09-09T08:33:57.131Z,99.90
2022-09-09T08:36:26.857Z,99.90
2022-09-09T08:38:55.749Z,99.90
2022-09-09T08:41:49.078Z,99.90
2022-09-09T08:44:31.972Z,99.90
2022-09-09T08:47:16.916Z,99.90
2022-09-09T08:49:50.822Z,99.90
2022-09-09T08:52:29.257Z,99.90
2022-09-09T08:55:24.071Z,99.90
2022-09-09T08:58:03.996Z,99.90
2022-09-09T09:01:01.230Z,99.90
2022-09-09T09:03:43.207Z,99.90
2022-09-09T09:06:13.459Z,99.90
2022-09-09T09:09:00.564Z,99.90
2022-09-09T09:11:27.338Z,99.90
2022-09-09T09:14:08.910Z,99.90
2022-09-09T09:16:46.642Z,99.90
2022-09-09T09:19:16.672Z,99.90
2022-09-09T09:22:08.111Z,99.90
2022-09-09T09:24:57.729Z,99.90
2022-09-09T09:27:34.694Z,99.90
2022-09-09T09:30:27.181Z,99.90
2022-09-09T09:33:04.112Z,99.90
2022-09-09T09:35:30.942Z,99.90
2022-09-09T09:41:05.587Z,99.90
2022-09-09T09:43:38.372Z,99.90
2022-09-09T09:46:17.496Z,99.90
2022-09-09T09:48:47.236Z,99.90
2022-09-09T09:51:24.094Z,99.90
2022-09-09T09:53:53.732Z,99.90
2022-09-09T09:56:29.958Z,99.90
2022-09-09T09:58:59.858Z,99.90
2022-09-09T10:01:28.218Z,99.90
2022-09-09T10:04:00.543Z,99.90
2022-09-09T10:06:35.917Z,99.90
2022-09-09T10:09:05.306Z,99.90
2022-09-09T10:11:39.314Z,99.90
2022-09-09T10:14:36.317Z,99.90
2022-09-09T10:17:09.003Z,99.90
2022-09-09T10:19:37.925Z,99.90
2022-09-09T10:22:18.588Z,99.90
2022-09-09T10:24:51.692Z,99.90
2022-09-09T10:27:32.499Z,99.90
2022-09-09T10:30:19.035Z,99.90
2022-09-09T10:32:52.016Z,99.90
2022-09-09T10:35:36.208Z,99.90
2022-09-09T10:38:15.122Z,99.90
2022-09-09T10:40:54.252Z,99.90
2022-09-09T10:43:30.610Z,99.90
2022-09-09T10:46:29.379Z,99.90
2022-09-09T10:49:08.649Z,99.90
2022-09-09T10:51:56.109Z,99.90
2022-09-09T10:54:32.334Z,99.90
2022-09-09T10:57:10.032Z,99.90
2022-09-09T10:59:48.394Z,99.90
2022-09-09T11:02:23.677Z,99.90
2022-09-09T11:05:00.716Z,99.90
2022-09-09T11:07:45.683Z,99.90
2022-09-09T11:10:46.331Z,99.90
2022-09-09T11:13:23.494Z,99.90
2022-09-09T11:16:22.429Z,99.90
2022-09-09T11:18:49.503Z,99.90
2022-09-09T11:21:26.499Z,99.70
2022-09-09T11:24:05.894Z,99.80
2022-09-09T11:27:03.908Z,99.90
2022-09-09T11:29:44.810Z,99.90
2022-09-09T11:32:45.997Z,99.90
2022-09-09T11:35:50.572Z,99.90
2022-09-09T11:38:54.320Z,99.90
2022-09-09T11:41:22.550Z,99.90
2022-09-09T11:43:53.838Z,99.90
2022-09-09T11:46:36.307Z,99.90
2022-09-09T11:49:06.331Z,99.80
2022-09-09T11:51:34.932Z,99.90
2022-09-09T11:54:22.148Z,99.90
2022-09-09T11:56:49.090Z,99.90
2022-09-09T11:59:25.705Z,99.90
2022-09-09T12:02:02.609Z,99.90
2022-09-09T12:04:43.267Z,99.90
2022-09-09T12:07:10.109Z,99.60
2022-09-09T12:09:49.373Z,99.30
2022-09-09T12:12:16.278Z,99.60
2022-09-09T12:14:44.240Z,99.90
2022-09-09T12:17:21.559Z,97.40
2022-09-09T12:19:48.745Z,97.00
2022-09-09T12:22:48.872Z,96.60
2022-09-09T12:25:39.793Z,97.30
2022-09-09T12:28:21.205Z,98.50
2022-09-09T12:31:08.980Z,99.20
2022-09-09T12:33:44.199Z,99.90
2022-09-09T12:36:18.882Z,99.90
2022-09-09T12:38:46.229Z,99.80
2022-09-09T12:41:27.754Z,99.90
2022-09-09T12:44:10.724Z,99.90
2022-09-09T12:46:41.777Z,99.90
2022-09-09T12:49:27.663Z,99.90
2022-09-09T12:51:54.957Z,99.90
2022-09-09T12:54:22.666Z,99.90
2022-09-09T12:56:50.747Z,99.90
2022-09-09T12:59:36.331Z,99.00
2022-09-09T13:02:03.308Z,99.70
2022-09-09T13:04:30.197Z,99.90
2022-09-09T13:07:08.047Z,99.90
2022-09-09T13:09:34.886Z,99.90
2022-09-09T13:12:08.271Z,99.90
2022-09-09T13:14:38.413Z,99.90
2022-09-09T13:17:07.281Z,99.90
2022-09-09T13:19:39.002Z,99.90
2022-09-09T13:22:41.730Z,99.90
2022-09-09T13:25:12.460Z,99.90
2022-09-09T13:27:41.963Z,99.90
2022-09-09T13:31:01.200Z,99.90
2022-09-09T13:33:38.367Z,99.90
2022-09-09T13:36:10.055Z,99.90
2022-09-09T13:38:53.060Z,99.90
2022-09-09T13:41:34.897Z,99.90
2022-09-09T13:44:03.844Z,99.90
2022-09-09T13:46:33.757Z,99.90
2022-09-09T13:49:02.116Z,99.90
2022-09-09T13:51:43.199Z,99.90
2022-09-09T13:54:12.342Z,99.90
2022-09-09T13:56:39.938Z,99.90
2022-09-09T13:59:11.574Z,99.90
2022-09-09T14:01:38.874Z,99.90
2022-09-09T14:04:08.553Z,99.90
2022-09-09T14:06:40.290Z,99.90
2022-09-09T14:09:08.645Z,99.90
2022-09-09T14:11:35.642Z,99.90
2022-09-09T14:14:02.705Z,99.90
2022-09-09T14:16:30.255Z,99.90
2022-09-09T14:18:57.668Z,99.90
2022-09-09T14:21:25.633Z,99.90
2022-09-09T14:23:53.840Z,99.90
2022-09-09T14:26:24.960Z,99.90
2022-09-09T14:28:56.386Z,99.90
2022-09-09T14:31:26.508Z,99.90
2022-09-09T14:33:53.807Z,99.90
2022-09-09T14:36:21.034Z,99.90
2022-09-09T14:38:48.099Z,99.90
2022-09-09T14:41:20.902Z,99.90
2022-09-09T14:43:47.859Z,99.90
2022-09-09T14:46:17.815Z,99.90
2022-09-09T14:48:46.309Z,99.90
2022-09-09T14:51:16.698Z,99.90
2022-09-09T14:53:44.856Z,99.90
2022-09-09T14:56:17.863Z,99.90
2022-09-09T14:58:45.818Z,99.90
2022-09-09T15:01:15.440Z,99.90
2022-09-09T15:03:44.458Z,99.90
2022-09-09T15:06:15.091Z,99.90
2022-09-09T15:08:44.709Z,99.90
2022-09-09T15:11:13.434Z,99.90
2022-09-09T15:13:41.914Z,99.90
2022-09-09T15:16:16.091Z,99.90
2022-09-09T15:18:45.811Z,99.90
2022-09-09T15:21:18.266Z,99.90
2022-09-09T15:23:45.056Z,99.90
2022-09-09T15:26:13.123Z,99.90
2022-09-09T15:28:40.258Z,99.90
2022-09-09T15:31:19.156Z,99.90
2022-09-09T15:33:49.901Z,99.90
2022-09-09T15:36:18.037Z,99.90
2022-09-09T15:38:44.986Z,99.90
2022-09-09T15:41:13.427Z,99.90
2022-09-09T15:43:43.817Z,99.90
2022-09-09T15:46:30.763Z,99.90
2022-09-09T15:49:03.625Z,99.90
2022-09-09T15:51:42.255Z,99.90
2022-09-09T15:54:18.430Z,99.90
2022-09-09T15:56:47.463Z,99.90
2022-09-09T15:59:15.780Z,99.90
2022-09-09T16:01:44.125Z,99.90
2022-09-09T16:04:11.683Z,99.90
2022-09-09T16:06:38.665Z,99.90
2022-09-09T16:09:07.723Z,99.90
2022-09-09T16:11:36.645Z,99.90
2022-09-09T16:14:05.031Z,99.90
2022-09-09T16:16:32.376Z,99.90
2022-09-09T16:19:02.572Z,99.90
2022-09-09T16:21:32.320Z,99.90
2022-09-09T16:24:02.181Z,99.90
2022-09-09T16:26:32.365Z,99.90
2022-09-09T16:29:00.569Z,99.90
2022-09-09T16:31:28.630Z,99.90
2022-09-09T16:33:56.108Z,99.90
2022-09-09T16:36:29.098Z,99.90
2022-09-09T16:38:58.299Z,99.90
2022-09-09T16:41:26.972Z,99.90
2022-09-09T16:43:56.370Z,99.90
2022-09-09T16:46:25.286Z,99.90
2022-09-09T16:48:52.628Z,99.90
2022-09-09T16:51:23.199Z,99.90
2022-09-09T16:53:50.237Z,99.90
2022-09-09T16:56:19.925Z,99.90
2022-09-09T16:58:51.767Z,99.90
2022-09-09T17:01:18.891Z,99.90
2022-09-09T17:03:45.769Z,99.90
2022-09-09T17:06:15.007Z,99.90
2022-09-09T17:08:42.455Z,99.90
2022-09-09T17:11:19.909Z,99.90
2022-09-09T17:13:48.118Z,99.90
2022-09-09T17:16:18.251Z,99.90
2022-09-09T17:18:46.104Z,99.90
2022-09-09T17:21:16.659Z,99.90
2022-09-09T17:23:44.104Z,99.90
2022-09-09T17:26:13.888Z,99.90
2022-09-09T17:28:42.167Z,99.90
2022-09-09T17:31:11.535Z,99.90
2022-09-09T17:33:41.305Z,99.90
2022-09-09T17:36:15.414Z,99.90
2022-09-09T17:38:43.618Z,99.90
2022-09-09T17:41:12.821Z,99.90
2022-09-09T17:43:40.512Z,99.90
2022-09-09T17:46:14.370Z,99.90
2022-09-09T17:48:42.967Z,99.90
2022-09-09T17:51:16.981Z,99.90
2022-09-09T17:53:45.976Z,99.90
2022-09-09T17:56:15.404Z,99.90
2022-09-09T17:58:42.791Z,99.90
2022-09-09T18:01:15.701Z,99.90
2022-09-09T18:03:44.235Z,99.90
2022-09-09T18:06:13.810Z,99.90
2022-09-09T18:08:48.717Z,99.90
2022-09-09T18:11:15.847Z,99.90
2022-09-09T18:13:42.656Z,99.90
2022-09-09T18:16:10.681Z,99.90
2022-09-09T18:18:37.735Z,99.90
2022-09-09T18:21:09.243Z,99.90
2022-09-09T18:23:38.428Z,99.90
2022-09-09T18:26:16.470Z,99.90
2022-09-09T18:28:44.347Z,99.90
2022-09-09T18:31:14.246Z,99.90
2022-09-09T18:33:43.692Z,99.90
2022-09-09T18:36:20.017Z,99.90
2022-09-09T18:38:47.683Z,99.90
2022-09-09T18:41:32.502Z,99.90
2022-09-09T18:44:02.015Z,99.90
2022-09-09T18:46:30.718Z,99.90
2022-09-09T18:48:58.127Z,99.90
2022-09-09T18:51:27.567Z,99.90
2022-09-09T18:54:04.127Z,99.90
2022-09-09T18:56:31.914Z,99.90
2022-09-09T18:59:01.432Z,99.90
2022-09-09T19:01:29.752Z,99.90
2022-09-09T19:03:57.254Z,99.90
2022-09-09T19:06:27.187Z,99.90
2022-09-09T19:08:58.277Z,99.90
2022-09-09T19:11:29.711Z,99.90
2022-09-09T19:14:02.445Z,99.90
2022-09-09T19:16:32.296Z,99.90
2022-09-09T19:19:06.200Z,99.90
2022-09-09T19:21:43.489Z,99.90
2022-09-09T19:24:22.817Z,99.90
2022-09-09T19:26:52.711Z,99.90
2022-09-09T19:29:22.499Z,99.90
2022-09-09T19:32:25.281Z,99.90
2022-09-09T19:34:38.402Z,99.90
2022-09-09T19:37:05.350Z,99.90
2022-09-09T19:39:34.414Z,99.90
2022-09-09T19:42:01.842Z,99.90
2022-09-09T19:44:29.041Z,99.90
2022-09-09T19:46:55.959Z,99.90
2022-09-09T19:49:23.151Z,99.90
2022-09-09T19:51:50.010Z,99.90
2022-09-09T19:54:16.849Z,99.90
2022-09-09T19:56:44.014Z,99.90
2022-09-09T19:59:12.780Z,99.90
2022-09-09T20:01:44.872Z,99.90
2022-09-09T20:04:13.346Z,99.90
2022-09-09T20:06:42.141Z,99.90
2022-09-09T20:09:16.170Z,99.90
2022-09-09T20:11:44.640Z,99.90
2022-09-09T20:14:12.285Z,99.90
2022-09-09T20:16:39.875Z,99.90
2022-09-09T20:19:08.531Z,99.90
2022-09-09T20:21:38.344Z,99.90
2022-09-09T20:24:08.578Z,99.90
2022-09-09T20:26:37.557Z,99.90
2022-09-09T20:29:07.735Z,99.90
2022-09-09T20:31:37.040Z,99.90
2022-09-09T20:34:06.052Z,99.90
2022-09-09T20:36:35.496Z,99.90
2022-09-09T20:39:15.120Z,99.90
2022-09-09T20:41:44.425Z,99.90
2022-09-09T20:44:19.969Z,99.90
2022-09-09T20:46:49.216Z,99.90
2022-09-09T20:49:17.474Z,99.90
2022-09-09T20:51:45.811Z,99.90
2022-09-09T20:54:16.087Z,99.90
2022-09-09T20:56:44.566Z,99.90
2022-09-09T20:59:17.219Z,99.90
2022-09-09T21:01:45.059Z,99.90
2022-09-09T21:04:12.414Z,99.90
2022-09-09T21:06:39.537Z,99.90
2022-09-09T21:09:06.762Z,99.90
2022-09-09T21:11:35.163Z,99.90
2022-09-09T21:14:02.978Z,99.90
2022-09-09T21:16:30.190Z,99.90
2022-09-09T21:18:59.146Z,99.90
2022-09-09T21:21:26.992Z,99.90
2022-09-09T21:23:57.112Z,99.90
2022-09-09T21:26:24.920Z,99.90
2022-09-09T21:28:51.959Z,99.90
2022-09-09T21:31:19.820Z,99.90
2022-09-09T21:33:46.959Z,99.90
2022-09-09T21:36:14.758Z,99.90
2022-09-09T21:38:42.437Z,99.90
2022-09-09T21:41:14.910Z,99.90
2022-09-09T21:43:43.389Z,99.90
2022-09-09T21:46:15.229Z,99.90
2022-09-09T21:48:42.431Z,99.90
2022-09-09T21:51:11.712Z,99.90
2022-09-09T21:53:39.576Z,99.90
2022-09-09T21:56:10.223Z,99.90
2022-09-09T21:58:37.695Z,99.90
2022-09-09T22:01:13.312Z,99.90
2022-09-09T22:03:42.416Z,99.90
2022-09-09T22:06:12.471Z,99.90
2022-09-09T22:08:39.685Z,99.90
2022-09-09T22:11:08.484Z,99.90
2022-09-09T22:13:36.686Z,99.90
2022-09-09T22:16:05.565Z,99.90
2022-09-09T22:18:32.508Z,99.90
2022-09-09T22:21:00.092Z,99.90
2022-09-09T22:23:27.031Z,99.90
2022-09-09T22:25:56.467Z,99.90
2022-09-09T22:28:23.554Z,99.90
2022-09-09T22:30:50.397Z,99.90
2022-09-09T22:33:17.244Z,99.90
2022-09-09T22:35:44.138Z,99.90
2022-09-09T22:38:12.136Z,99.90
2022-09-09T22:40:40.242Z,99.90
2022-09-09T22:43:16.401Z,99.90
2022-09-09T22:45:44.131Z,99.90
2022-09-09T22:48:12.111Z,99.90
2022-09-09T22:50:42.263Z,99.90
2022-09-09T22:53:13.376Z,99.90
2022-09-09T22:55:40.518Z,99.90
2022-09-09T22:58:07.902Z,99.90
2022-09-09T23:00:35.195Z,99.90
2022-09-09T23:03:02.138Z,99.90
2022-09-09T23:05:29.012Z,99.90
2022-09-09T23:07:58.461Z,99.90
2022-09-09T23:10:27.152Z,99.90
2022-09-09T23:12:54.156Z,99.90
2022-09-09T23:15:21.306Z,99.90
2022-09-09T23:17:48.828Z,99.90
2022-09-09T23:20:15.619Z,99.90
2022-09-09T23:22:43.053Z,99.90
2022-09-09T23:25:10.037Z,99.90
2022-09-09T23:27:38.579Z,99.90
2022-09-09T23:30:08.947Z,99.90
2022-09-09T23:32:35.752Z,99.90
2022-09-09T23:35:02.590Z,99.90
2022-09-09T23:37:31.870Z,99.90
2022-09-09T23:39:58.629Z,99.90
2022-09-09T23:42:26.938Z,99.90
2022-09-09T23:44:53.930Z,99.90
2022-09-09T23:47:20.715Z,99.90
2022-09-09T23:49:48.969Z,99.90
2022-09-09T23:52:15.836Z,99.90
2022-09-09T23:54:43.671Z,99.90
2022-09-09T23:57:13.670Z,99.90
2022-09-09T23:59:40.619Z,99.90
